sensor_id;sensor_type;location;lat;lon;timestamp;temperature;humidity
18225;DHT22;9237;48.590;8.854;2022-12-11T00:01:14;-3.70;99.90
18225;DHT22;9237;48.590;8.854;2022-12-11T00:03:41;-3.80;99.90
18225;DHT22;9237;48.590;8.854;2022-12-11T00:06:10;-3.80;99.90
18225;DHT22;9237;48.590;8.854;2022-12-11T00:08:38;-3.80;99.90
18225;DHT22;9237;48.590;8.854;2022-12-11T00:11:07;-3.90;99.90
18225;DHT22;9237;48.590;8.854;2022-12-11T00:13:35;-4.00;99.90
18225;DHT22;9237;48.590;8.854;2022-12-11T00:16:02;-4.10;99.90
18225;DHT22;9237;48.590;8.854;2022-12-11T00:18:29;-4.10;99.90
18225;DHT22;9237;48.590;8.854;2022-12-11T00:20:59;-4.10;99.90
18225;DHT22;9237;48.590;8.854;2022-12-11T00:23:26;-4.20;99.90
18225;DHT22;9237;48.590;8.854;2022-12-11T00:25:52;-4.30;99.90
18225;DHT22;9237;48.590;8.854;2022-12-11T00:28:20;-4.40;99.90
18225;DHT22;9237;48.590;8.854;2022-12-11T00:30:48;-4.50;99.90
18225;DHT22;9237;48.590;8.854;2022-12-11T00:33:16;-4.50;99.90
18225;DHT22;9237;48.590;8.854;2022-12-11T00:35:44;-4.50;99.90
18225;DHT22;9237;48.590;8.854;2022-12-11T00:38:13;-4.50;99.90
18225;DHT22;9237;48.590;8.854;2022-12-11T00:40:41;-4.60;99.90
18225;DHT22;9237;48.590;8.854;2022-12-11T00:43:08;-4.60;99.90
18225;DHT22;9237;48.590;8.854;2022-12-11T00:45:35;-4.60;99.90
18225;DHT22;9237;48.590;8.854;2022-12-11T00:48:05;-4.50;99.90
18225;DHT22;9237;48.590;8.854;2022-12-11T00:50:32;-4.50;99.90
18225;DHT22;9237;48.590;8.854;2022-12-11T00:52:58;-4.30;99.90
18225;DHT22;9237;48.590;8.854;2022-12-11T00:55:25;-4.20;99.90
18225;DHT22;9237;48.590;8.854;2022-12-11T00:57:53;-4.20;99.90
18225;DHT22;9237;48.590;8.854;2022-12-11T01:00:20;-4.20;99.90
18225;DHT22;9237;48.590;8.854;2022-12-11T01:02:47;-4.20;99.90
18225;DHT22;9237;48.590;8.854;2022-12-11T01:05:16;-4.20;99.90
18225;DHT22;9237;48.590;8.854;2022-12-11T01:07:43;-4.30;99.90
18225;DHT22;9237;48.590;8.854;2022-12-11T01:10:10;-4.20;99.90
18225;DHT22;9237;48.590;8.854;2022-12-11T01:12:49;-4.10;99.90
18225;DHT22;9237;48.590;8.854;2022-12-11T01:15:16;-4.10;99.90
18225;DHT22;9237;48.590;8.854;2022-12-11T01:17:43;-4.00;99.90
18225;DHT22;9237;48.590;8.854;2022-12-11T01:20:10;-4.00;99.90
18225;DHT22;9237;48.590;8.854;2022-12-11T01:22:39;-4.00;99.90
18225;DHT22;9237;48.590;8.854;2022-12-11T01:25:06;-3.90;99.90
18225;DHT22;9237;48.590;8.854;2022-12-11T01:27:34;-3.80;99.90
18225;DHT22;9237;48.590;8.854;2022-12-11T01:30:02;-3.60;99.90
18225;DHT22;9237;48.590;8.854;2022-12-11T01:32:30;-3.60;99.90
18225;DHT22;9237;48.590;8.854;2022-12-11T01:34:57;-3.60;99.90
18225;DHT22;9237;48.590;8.854;2022-12-11T01:37:23;-3.50;99.90
18225;DHT22;9237;48.590;8.854;2022-12-11T01:39:52;-3.40;99.90
18225;DHT22;9237;48.590;8.854;2022-12-11T01:42:19;-3.40;99.90
18225;DHT22;9237;48.590;8.854;2022-12-11T01:47:55;-3.30;99.90
18225;DHT22;9237;48.590;8.854;2022-12-11T01:50:23;-3.20;99.90
18225;DHT22;9237;48.590;8.854;2022-12-11T01:52:50;-3.10;99.90
18225;DHT22;9237;48.590;8.854;2022-12-11T01:55:19;-3.00;99.90
18225;DHT22;9237;48.590;8.854;2022-12-11T01:57:48;-3.00;99.90
18225;DHT22;9237;48.590;8.854;2022-12-11T02:00:16;-2.90;99.90
18225;DHT22;9237;48.590;8.854;2022-12-11T02:02:43;-2.90;99.90
18225;DHT22;9237;48.590;8.854;2022-12-11T02:05:11;-2.90;99.90
18225;DHT22;9237;48.590;8.854;2022-12-11T02:07:43;-2.90;99.90
18225;DHT22;9237;48.590;8.854;2022-12-11T02:10:11;-2.90;99.90
18225;DHT22;9237;48.590;8.854;2022-12-11T02:12:46;-2.90;99.90
18225;DHT22;9237;48.590;8.854;2022-12-11T02:15:22;-2.90;99.90
18225;DHT22;9237;48.590;8.854;2022-12-11T02:17:55;-2.80;99.90
18225;DHT22;9237;48.590;8.854;2022-12-11T02:20:27;-2.70;99.90
18225;DHT22;9237;48.590;8.854;2022-12-11T02:23:25;-2.60;99.90
18225;DHT22;9237;48.590;8.854;2022-12-11T02:26:10;-2.60;99.90
18225;DHT22;9237;48.590;8.854;2022-12-11T02:28:44;-2.60;99.90
18225;DHT22;9237;48.590;8.854;2022-12-11T02:31:15;-2.60;99.90
18225;DHT22;9237;48.590;8.854;2022-12-11T02:33:47;-2.50;99.90
18225;DHT22;9237;48.590;8.854;2022-12-11T02:36:21;-2.50;99.90
18225;DHT22;9237;48.590;8.854;2022-12-11T02:38:51;-2.70;99.90
18225;DHT22;9237;48.590;8.854;2022-12-11T02:41:20;-2.80;99.90
18225;DHT22;9237;48.590;8.854;2022-12-11T02:43:50;-2.80;99.90
18225;DHT22;9237;48.590;8.854;2022-12-11T02:46:18;-3.00;99.90
18225;DHT22;9237;48.590;8.854;2022-12-11T02:48:48;-3.10;99.90
18225;DHT22;9237;48.590;8.854;2022-12-11T02:51:17;-3.20;99.90
18225;DHT22;9237;48.590;8.854;2022-12-11T02:53:46;-3.20;99.90
18225;DHT22;9237;48.590;8.854;2022-12-11T02:56:18;-3.30;99.90
18225;DHT22;9237;48.590;8.854;2022-12-11T02:58:49;-3.30;99.90
18225;DHT22;9237;48.590;8.854;2022-12-11T03:01:17;-3.30;99.90
18225;DHT22;9237;48.590;8.854;2022-12-11T03:03:44;-3.40;99.90
18225;DHT22;9237;48.590;8.854;2022-12-11T03:06:15;-3.50;99.90
18225;DHT22;9237;48.590;8.854;2022-12-11T03:08:43;-3.60;99.90
18225;DHT22;9237;48.590;8.854;2022-12-11T03:11:10;-3.70;99.90
18225;DHT22;9237;48.590;8.854;2022-12-11T03:13:38;-3.70;99.90
18225;DHT22;9237;48.590;8.854;2022-12-11T03:16:12;-3.70;99.90
18225;DHT22;9237;48.590;8.854;2022-12-11T03:18:47;-3.70;99.90
18225;DHT22;9237;48.590;8.854;2022-12-11T03:21:21;-3.80;99.90
18225;DHT22;9237;48.590;8.854;2022-12-11T03:23:54;-3.70;99.90
18225;DHT22;9237;48.590;8.854;2022-12-11T03:26:23;-3.80;99.90
18225;DHT22;9237;48.590;8.854;2022-12-11T03:28:54;-3.80;99.90
18225;DHT22;9237;48.590;8.854;2022-12-11T03:31:27;-3.80;99.90
18225;DHT22;9237;48.590;8.854;2022-12-11T03:33:57;-3.90;99.90
18225;DHT22;9237;48.590;8.854;2022-12-11T03:36:31;-4.00;99.90
18225;DHT22;9237;48.590;8.854;2022-12-11T03:39:00;-4.20;99.90
18225;DHT22;9237;48.590;8.854;2022-12-11T03:41:30;-4.20;99.90
18225;DHT22;9237;48.590;8.854;2022-12-11T03:43:58;-4.10;99.90
18225;DHT22;9237;48.590;8.854;2022-12-11T03:46:30;-4.10;99.90
18225;DHT22;9237;48.590;8.854;2022-12-11T03:49:01;-4.10;99.90
18225;DHT22;9237;48.590;8.854;2022-12-11T03:51:30;-4.00;99.90
18225;DHT22;9237;48.590;8.854;2022-12-11T03:53:58;-4.00;99.90
18225;DHT22;9237;48.590;8.854;2022-12-11T03:56:28;-4.00;99.90
18225;DHT22;9237;48.590;8.854;2022-12-11T03:58:56;-4.10;99.90
18225;DHT22;9237;48.590;8.854;2022-12-11T04:01:22;-4.20;99.90
18225;DHT22;9237;48.590;8.854;2022-12-11T04:03:51;-4.20;99.90
18225;DHT22;9237;48.590;8.854;2022-12-11T04:06:18;-4.30;99.90
18225;DHT22;9237;48.590;8.854;2022-12-11T04:08:44;-4.30;99.90
18225;DHT22;9237;48.590;8.854;2022-12-11T04:11:11;-4.30;99.90
18225;DHT22;9237;48.590;8.854;2022-12-11T04:13:56;-4.40;99.90
18225;DHT22;9237;48.590;8.854;2022-12-11T04:16:40;-4.40;99.90
18225;DHT22;9237;48.590;8.854;2022-12-11T04:19:09;-4.40;99.90
18225;DHT22;9237;48.590;8.854;2022-12-11T04:21:53;-4.40;99.90
18225;DHT22;9237;48.590;8.854;2022-12-11T04:24:37;-4.30;99.90
18225;DHT22;9237;48.590;8.854;2022-12-11T04:27:04;-4.30;99.90
18225;DHT22;9237;48.590;8.854;2022-12-11T04:29:31;-4.20;99.90
18225;DHT22;9237;48.590;8.854;2022-12-11T04:31:58;-4.10;99.90
18225;DHT22;9237;48.590;8.854;2022-12-11T04:34:26;-4.10;99.90
18225;DHT22;9237;48.590;8.854;2022-12-11T04:36:53;-4.10;99.90
18225;DHT22;9237;48.590;8.854;2022-12-11T04:39:20;-4.00;99.90
18225;DHT22;9237;48.590;8.854;2022-12-11T04:41:46;-4.00;99.90
18225;DHT22;9237;48.590;8.854;2022-12-11T04:44:13;-3.90;99.90
18225;DHT22;9237;48.590;8.854;2022-12-11T04:46:40;-3.90;99.90
18225;DHT22;9237;48.590;8.854;2022-12-11T04:49:07;-3.70;99.90
18225;DHT22;9237;48.590;8.854;2022-12-11T04:51:35;-3.70;99.90
18225;DHT22;9237;48.590;8.854;2022-12-11T04:54:02;-3.60;99.90
18225;DHT22;9237;48.590;8.854;2022-12-11T04:56:29;-3.60;99.90
18225;DHT22;9237;48.590;8.854;2022-12-11T04:58:56;-3.60;99.90
18225;DHT22;9237;48.590;8.854;2022-12-11T05:01:23;-3.60;99.90
18225;DHT22;9237;48.590;8.854;2022-12-11T05:03:49;-3.60;99.90
18225;DHT22;9237;48.590;8.854;2022-12-11T05:06:17;-3.50;99.90
18225;DHT22;9237;48.590;8.854;2022-12-11T05:08:45;-3.50;99.90
18225;DHT22;9237;48.590;8.854;2022-12-11T05:11:13;-3.50;99.90
18225;DHT22;9237;48.590;8.854;2022-12-11T05:13:41;-3.40;99.90
18225;DHT22;9237;48.590;8.854;2022-12-11T05:16:09;-3.40;99.90
18225;DHT22;9237;48.590;8.854;2022-12-11T05:18:37;-3.40;99.90
18225;DHT22;9237;48.590;8.854;2022-12-11T05:21:06;-3.40;99.90
18225;DHT22;9237;48.590;8.854;2022-12-11T05:23:33;-3.40;99.90
18225;DHT22;9237;48.590;8.854;2022-12-11T05:26:04;-3.50;99.90
18225;DHT22;9237;48.590;8.854;2022-12-11T05:28:33;-3.50;99.90
18225;DHT22;9237;48.590;8.854;2022-12-11T05:31:03;-3.50;99.90
18225;DHT22;9237;48.590;8.854;2022-12-11T05:33:30;-3.60;99.90
18225;DHT22;9237;48.590;8.854;2022-12-11T05:35:57;-3.50;99.90
18225;DHT22;9237;48.590;8.854;2022-12-11T05:38:24;-3.50;99.90
18225;DHT22;9237;48.590;8.854;2022-12-11T05:40:55;-3.50;99.90
18225;DHT22;9237;48.590;8.854;2022-12-11T05:43:24;-3.50;99.90
18225;DHT22;9237;48.590;8.854;2022-12-11T05:45:51;-3.60;99.90
18225;DHT22;9237;48.590;8.854;2022-12-11T05:48:17;-3.60;99.90
18225;DHT22;9237;48.590;8.854;2022-12-11T05:50:54;-3.70;99.90
18225;DHT22;9237;48.590;8.854;2022-12-11T05:53:21;-3.70;99.90
18225;DHT22;9237;48.590;8.854;2022-12-11T05:55:48;-3.80;99.90
18225;DHT22;9237;48.590;8.854;2022-12-11T05:58:15;-3.80;99.90
18225;DHT22;9237;48.590;8.854;2022-12-11T06:00:43;-3.90;99.90
18225;DHT22;9237;48.590;8.854;2022-12-11T06:03:10;-3.90;99.90
18225;DHT22;9237;48.590;8.854;2022-12-11T06:05:37;-3.90;99.90
18225;DHT22;9237;48.590;8.854;2022-12-11T06:08:04;-3.90;99.90
18225;DHT22;9237;48.590;8.854;2022-12-11T06:10:31;-3.90;99.90
18225;DHT22;9237;48.590;8.854;2022-12-11T06:12:58;-3.90;99.90
18225;DHT22;9237;48.590;8.854;2022-12-11T06:15:25;-3.90;99.90
18225;DHT22;9237;48.590;8.854;2022-12-11T06:17:53;-4.00;99.90
18225;DHT22;9237;48.590;8.854;2022-12-11T06:20:20;-4.10;99.90
18225;DHT22;9237;48.590;8.854;2022-12-11T06:22:47;-4.20;99.90
18225;DHT22;9237;48.590;8.854;2022-12-11T06:25:13;-4.30;99.90
18225;DHT22;9237;48.590;8.854;2022-12-11T06:27:40;-4.40;99.90
18225;DHT22;9237;48.590;8.854;2022-12-11T06:30:08;-4.50;99.90
18225;DHT22;9237;48.590;8.854;2022-12-11T06:32:35;-4.50;99.90
18225;DHT22;9237;48.590;8.854;2022-12-11T06:35:05;-4.60;99.90
18225;DHT22;9237;48.590;8.854;2022-12-11T06:37:33;-4.70;99.90
18225;DHT22;9237;48.590;8.854;2022-12-11T06:40:00;-4.90;99.90
18225;DHT22;9237;48.590;8.854;2022-12-11T06:42:28;-4.90;99.90
18225;DHT22;9237;48.590;8.854;2022-12-11T06:44:55;-5.00;99.90
18225;DHT22;9237;48.590;8.854;2022-12-11T06:47:24;-5.10;99.90
18225;DHT22;9237;48.590;8.854;2022-12-11T06:49:51;-5.30;99.90
18225;DHT22;9237;48.590;8.854;2022-12-11T06:52:19;-5.30;99.90
18225;DHT22;9237;48.590;8.854;2022-12-11T06:54:46;-5.40;99.90
18225;DHT22;9237;48.590;8.854;2022-12-11T06:57:13;-5.40;99.90
18225;DHT22;9237;48.590;8.854;2022-12-11T06:59:40;-5.40;99.90
18225;DHT22;9237;48.590;8.854;2022-12-11T07:02:09;-5.40;99.90
18225;DHT22;9237;48.590;8.854;2022-12-11T07:04:37;-5.40;99.90
18225;DHT22;9237;48.590;8.854;2022-12-11T07:07:04;-5.30;99.90
18225;DHT22;9237;48.590;8.854;2022-12-11T07:09:32;-5.20;99.90
18225;DHT22;9237;48.590;8.854;2022-12-11T07:11:59;-5.00;99.90
18225;DHT22;9237;48.590;8.854;2022-12-11T07:14:28;-4.90;99.90
18225;DHT22;9237;48.590;8.854;2022-12-11T07:16:55;-4.80;99.90
18225;DHT22;9237;48.590;8.854;2022-12-11T07:19:22;-4.80;99.90
18225;DHT22;9237;48.590;8.854;2022-12-11T07:21:49;-4.70;99.90
18225;DHT22;9237;48.590;8.854;2022-12-11T07:24:16;-4.60;99.90
18225;DHT22;9237;48.590;8.854;2022-12-11T07:26:45;-4.50;99.90
18225;DHT22;9237;48.590;8.854;2022-12-11T07:29:11;-4.50;99.90
18225;DHT22;9237;48.590;8.854;2022-12-11T07:31:38;-4.40;99.90
18225;DHT22;9237;48.590;8.854;2022-12-11T07:34:06;-4.30;99.90
18225;DHT22;9237;48.590;8.854;2022-12-11T07:36:33;-4.20;99.90
18225;DHT22;9237;48.590;8.854;2022-12-11T07:39:00;-4.10;99.90
18225;DHT22;9237;48.590;8.854;2022-12-11T07:41:27;-4.10;99.90
18225;DHT22;9237;48.590;8.854;2022-12-11T07:43:55;-4.00;99.90
18225;DHT22;9237;48.590;8.854;2022-12-11T07:46:25;-4.00;99.90
18225;DHT22;9237;48.590;8.854;2022-12-11T07:48:52;-4.00;99.90
18225;DHT22;9237;48.590;8.854;2022-12-11T07:51:20;-4.00;99.90
18225;DHT22;9237;48.590;8.854;2022-12-11T07:53:51;-4.00;99.90
18225;DHT22;9237;48.590;8.854;2022-12-11T07:56:18;-4.00;99.90
18225;DHT22;9237;48.590;8.854;2022-12-11T07:58:46;-3.90;99.90
18225;DHT22;9237;48.590;8.854;2022-12-11T08:01:16;-3.90;99.90
18225;DHT22;9237;48.590;8.854;2022-12-11T08:03:44;-3.90;99.90
18225;DHT22;9237;48.590;8.854;2022-12-11T08:06:11;-3.90;99.90
18225;DHT22;9237;48.590;8.854;2022-12-11T08:08:38;-3.80;99.90
18225;DHT22;9237;48.590;8.854;2022-12-11T08:11:07;-3.70;99.90
18225;DHT22;9237;48.590;8.854;2022-12-11T08:13:35;-3.60;99.90
18225;DHT22;9237;48.590;8.854;2022-12-11T08:16:02;-3.50;99.90
18225;DHT22;9237;48.590;8.854;2022-12-11T08:18:31;-3.30;99.90
18225;DHT22;9237;48.590;8.854;2022-12-11T08:20:58;-3.10;99.90
18225;DHT22;9237;48.590;8.854;2022-12-11T08:23:24;-2.90;99.90
18225;DHT22;9237;48.590;8.854;2022-12-11T08:25:51;-2.70;99.90
18225;DHT22;9237;48.590;8.854;2022-12-11T08:28:18;-2.60;99.90
18225;DHT22;9237;48.590;8.854;2022-12-11T08:30:45;-2.70;99.90
18225;DHT22;9237;48.590;8.854;2022-12-11T08:33:11;-2.70;99.90
18225;DHT22;9237;48.590;8.854;2022-12-11T08:35:40;-2.70;99.90
18225;DHT22;9237;48.590;8.854;2022-12-11T08:38:08;-2.60;99.90
18225;DHT22;9237;48.590;8.854;2022-12-11T08:40:35;-2.60;99.90
18225;DHT22;9237;48.590;8.854;2022-12-11T08:43:02;-2.60;99.90
18225;DHT22;9237;48.590;8.854;2022-12-11T08:45:28;-2.60;99.90
18225;DHT22;9237;48.590;8.854;2022-12-11T08:47:57;-2.60;99.90
18225;DHT22;9237;48.590;8.854;2022-12-11T08:50:24;-2.70;99.90
18225;DHT22;9237;48.590;8.854;2022-12-11T08:52:52;-2.80;99.90
18225;DHT22;9237;48.590;8.854;2022-12-11T08:55:19;-2.80;99.90
18225;DHT22;9237;48.590;8.854;2022-12-11T08:57:46;-2.90;99.90
18225;DHT22;9237;48.590;8.854;2022-12-11T09:00:14;-3.00;99.90
18225;DHT22;9237;48.590;8.854;2022-12-11T09:02:41;-3.10;99.90
18225;DHT22;9237;48.590;8.854;2022-12-11T09:05:08;-3.10;99.90
18225;DHT22;9237;48.590;8.854;2022-12-11T09:07:36;-3.10;99.90
18225;DHT22;9237;48.590;8.854;2022-12-11T09:10:06;-3.10;99.90
18225;DHT22;9237;48.590;8.854;2022-12-11T09:12:33;-2.90;99.90
18225;DHT22;9237;48.590;8.854;2022-12-11T09:15:00;-2.60;99.90
18225;DHT22;9237;48.590;8.854;2022-12-11T09:17:27;-2.10;99.90
18225;DHT22;9237;48.590;8.854;2022-12-11T09:19:54;-1.60;99.90
18225;DHT22;9237;48.590;8.854;2022-12-11T09:22:21;-1.20;99.90
18225;DHT22;9237;48.590;8.854;2022-12-11T09:24:47;-1.10;99.90
18225;DHT22;9237;48.590;8.854;2022-12-11T09:27:16;-1.00;99.90
18225;DHT22;9237;48.590;8.854;2022-12-11T09:29:45;-1.00;99.90
18225;DHT22;9237;48.590;8.854;2022-12-11T09:32:12;-0.90;99.90
18225;DHT22;9237;48.590;8.854;2022-12-11T09:34:39;-0.90;99.90
18225;DHT22;9237;48.590;8.854;2022-12-11T09:37:06;-1.20;99.90
18225;DHT22;9237;48.590;8.854;2022-12-11T09:39:32;-1.30;99.90
18225;DHT22;9237;48.590;8.854;2022-12-11T09:42:04;-1.40;99.90
18225;DHT22;9237;48.590;8.854;2022-12-11T09:44:45;-1.30;99.90
18225;DHT22;9237;48.590;8.854;2022-12-11T09:47:19;-1.40;99.90
18225;DHT22;9237;48.590;8.854;2022-12-11T09:49:49;-1.30;99.90
18225;DHT22;9237;48.590;8.854;2022-12-11T09:52:18;-1.10;99.90
18225;DHT22;9237;48.590;8.854;2022-12-11T09:54:49;-1.00;99.90
18225;DHT22;9237;48.590;8.854;2022-12-11T09:57:32;-1.00;99.90
18225;DHT22;9237;48.590;8.854;2022-12-11T10:00:21;-1.00;99.90
18225;DHT22;9237;48.590;8.854;2022-12-11T10:05:45;-0.90;99.90
18225;DHT22;9237;48.590;8.854;2022-12-11T10:08:18;-0.90;99.90
18225;DHT22;9237;48.590;8.854;2022-12-11T10:10:53;-1.00;99.90
18225;DHT22;9237;48.590;8.854;2022-12-11T10:13:27;-0.90;99.90
18225;DHT22;9237;48.590;8.854;2022-12-11T10:15:59;-0.80;99.90
18225;DHT22;9237;48.590;8.854;2022-12-11T10:18:29;-0.80;99.90
18225;DHT22;9237;48.590;8.854;2022-12-11T10:21:00;-0.60;99.90
18225;DHT22;9237;48.590;8.854;2022-12-11T10:23:33;-0.50;99.90
18225;DHT22;9237;48.590;8.854;2022-12-11T10:26:05;-0.60;99.90
18225;DHT22;9237;48.590;8.854;2022-12-11T10:28:33;-0.50;99.90
18225;DHT22;9237;48.590;8.854;2022-12-11T10:31:09;-0.60;99.90
18225;DHT22;9237;48.590;8.854;2022-12-11T10:33:48;-0.40;99.90
18225;DHT22;9237;48.590;8.854;2022-12-11T10:36:24;-0.20;99.90
18225;DHT22;9237;48.590;8.854;2022-12-11T10:38:52;-0.10;99.90
18225;DHT22;9237;48.590;8.854;2022-12-11T10:41:20;0.00;99.90
18225;DHT22;9237;48.590;8.854;2022-12-11T10:43:51;0.20;99.90
18225;DHT22;9237;48.590;8.854;2022-12-11T10:46:21;0.30;99.90
18225;DHT22;9237;48.590;8.854;2022-12-11T10:48:50;0.30;99.90
18225;DHT22;9237;48.590;8.854;2022-12-11T10:51:19;0.40;99.90
18225;DHT22;9237;48.590;8.854;2022-12-11T10:53:49;0.40;99.90
18225;DHT22;9237;48.590;8.854;2022-12-11T10:56:24;0.50;99.90
18225;DHT22;9237;48.590;8.854;2022-12-11T10:58:51;0.50;99.90
18225;DHT22;9237;48.590;8.854;2022-12-11T11:01:21;0.50;99.90
18225;DHT22;9237;48.590;8.854;2022-12-11T11:03:55;0.30;99.90
18225;DHT22;9237;48.590;8.854;2022-12-11T11:06:24;0.50;99.90
18225;DHT22;9237;48.590;8.854;2022-12-11T11:08:53;0.50;99.90
18225;DHT22;9237;48.590;8.854;2022-12-11T11:11:24;0.40;99.90
18225;DHT22;9237;48.590;8.854;2022-12-11T11:13:52;0.30;99.90
18225;DHT22;9237;48.590;8.854;2022-12-11T11:16:31;0.50;99.90
18225;DHT22;9237;48.590;8.854;2022-12-11T11:18:58;0.60;99.90
18225;DHT22;9237;48.590;8.854;2022-12-11T11:21:25;0.60;99.90
18225;DHT22;9237;48.590;8.854;2022-12-11T11:23:54;0.60;99.90
18225;DHT22;9237;48.590;8.854;2022-12-11T11:26:21;0.50;99.90
18225;DHT22;9237;48.590;8.854;2022-12-11T11:28:51;0.50;99.90
18225;DHT22;9237;48.590;8.854;2022-12-11T11:31:18;0.60;99.90
18225;DHT22;9237;48.590;8.854;2022-12-11T11:33:53;0.70;99.90
18225;DHT22;9237;48.590;8.854;2022-12-11T11:36:24;0.80;99.90
18225;DHT22;9237;48.590;8.854;2022-12-11T11:39:02;0.70;99.90
18225;DHT22;9237;48.590;8.854;2022-12-11T11:41:38;0.80;99.90
18225;DHT22;9237;48.590;8.854;2022-12-11T11:44:09;0.60;99.90
18225;DHT22;9237;48.590;8.854;2022-12-11T11:46:41;0.70;99.90
18225;DHT22;9237;48.590;8.854;2022-12-11T11:49:14;0.80;99.90
18225;DHT22;9237;48.590;8.854;2022-12-11T11:51:46;0.80;99.90
18225;DHT22;9237;48.590;8.854;2022-12-11T11:54:21;0.60;99.90
18225;DHT22;9237;48.590;8.854;2022-12-11T11:56:51;0.70;99.90
18225;DHT22;9237;48.590;8.854;2022-12-11T11:59:22;0.70;99.90
18225;DHT22;9237;48.590;8.854;2022-12-11T12:01:54;0.80;99.90
18225;DHT22;9237;48.590;8.854;2022-12-11T12:04:23;0.70;99.90
18225;DHT22;9237;48.590;8.854;2022-12-11T12:07:04;0.70;99.90
18225;DHT22;9237;48.590;8.854;2022-12-11T12:09:43;0.70;99.90
18225;DHT22;9237;48.590;8.854;2022-12-11T12:12:16;0.80;99.90
18225;DHT22;9237;48.590;8.854;2022-12-11T12:17:44;0.70;99.90
18225;DHT22;9237;48.590;8.854;2022-12-11T12:20:18;0.70;99.90
18225;DHT22;9237;48.590;8.854;2022-12-11T12:23:02;0.80;99.90
18225;DHT22;9237;48.590;8.854;2022-12-11T12:25:37;0.80;99.90
18225;DHT22;9237;48.590;8.854;2022-12-11T12:28:23;0.70;99.90
18225;DHT22;9237;48.590;8.854;2022-12-11T12:31:03;0.80;99.90
18225;DHT22;9237;48.590;8.854;2022-12-11T12:33:41;0.70;99.90
18225;DHT22;9237;48.590;8.854;2022-12-11T12:36:16;0.50;99.90
18225;DHT22;9237;48.590;8.854;2022-12-11T12:38:51;0.40;99.90
18225;DHT22;9237;48.590;8.854;2022-12-11T12:41:21;0.40;99.90
18225;DHT22;9237;48.590;8.854;2022-12-11T12:44:03;0.50;99.90
18225;DHT22;9237;48.590;8.854;2022-12-11T12:46:45;0.70;99.90
18225;DHT22;9237;48.590;8.854;2022-12-11T12:49:16;0.90;99.90
18225;DHT22;9237;48.590;8.854;2022-12-11T12:51:46;1.00;99.90
18225;DHT22;9237;48.590;8.854;2022-12-11T12:54:15;1.10;99.90
18225;DHT22;9237;48.590;8.854;2022-12-11T12:56:43;1.00;99.90
18225;DHT22;9237;48.590;8.854;2022-12-11T12:59:19;1.10;99.90
18225;DHT22;9237;48.590;8.854;2022-12-11T13:01:48;1.10;99.90
18225;DHT22;9237;48.590;8.854;2022-12-11T13:04:36;1.00;99.90
18225;DHT22;9237;48.590;8.854;2022-12-11T13:07:13;1.00;99.90
18225;DHT22;9237;48.590;8.854;2022-12-11T13:09:41;1.10;99.90
18225;DHT22;9237;48.590;8.854;2022-12-11T13:12:14;1.10;99.90
18225;DHT22;9237;48.590;8.854;2022-12-11T13:14:41;1.10;99.90
18225;DHT22;9237;48.590;8.854;2022-12-11T13:17:25;1.10;99.90
18225;DHT22;9237;48.590;8.854;2022-12-11T13:20:13;1.00;99.90
18225;DHT22;9237;48.590;8.854;2022-12-11T13:22:51;0.90;99.90
18225;DHT22;9237;48.590;8.854;2022-12-11T13:25:26;0.70;99.90
18225;DHT22;9237;48.590;8.854;2022-12-11T13:28:03;0.60;99.90
18225;DHT22;9237;48.590;8.854;2022-12-11T13:30:30;0.70;99.90
18225;DHT22;9237;48.590;8.854;2022-12-11T13:33:03;0.70;99.90
18225;DHT22;9237;48.590;8.854;2022-12-11T13:35:32;0.70;99.90
18225;DHT22;9237;48.590;8.854;2022-12-11T13:38:05;0.80;99.90
18225;DHT22;9237;48.590;8.854;2022-12-11T13:40:37;0.90;99.90
18225;DHT22;9237;48.590;8.854;2022-12-11T13:43:07;1.00;99.90
18225;DHT22;9237;48.590;8.854;2022-12-11T13:45:42;1.00;99.90
18225;DHT22;9237;48.590;8.854;2022-12-11T13:48:18;0.90;99.90
18225;DHT22;9237;48.590;8.854;2022-12-11T13:50:45;0.90;99.90
18225;DHT22;9237;48.590;8.854;2022-12-11T13:53:15;0.80;99.90
18225;DHT22;9237;48.590;8.854;2022-12-11T13:55:42;0.70;99.90
18225;DHT22;9237;48.590;8.854;2022-12-11T13:58:17;0.70;99.90
18225;DHT22;9237;48.590;8.854;2022-12-11T14:00:56;0.80;99.90
18225;DHT22;9237;48.590;8.854;2022-12-11T14:03:25;0.70;99.90
18225;DHT22;9237;48.590;8.854;2022-12-11T14:05:53;0.70;99.90
18225;DHT22;9237;48.590;8.854;2022-12-11T14:08:23;0.60;99.90
18225;DHT22;9237;48.590;8.854;2022-12-11T14:10:53;0.60;99.90
18225;DHT22;9237;48.590;8.854;2022-12-11T14:13:22;0.60;99.90
18225;DHT22;9237;48.590;8.854;2022-12-11T14:15:50;0.60;99.90
18225;DHT22;9237;48.590;8.854;2022-12-11T14:18:20;0.50;99.90
18225;DHT22;9237;48.590;8.854;2022-12-11T14:20:53;0.50;99.90
18225;DHT22;9237;48.590;8.854;2022-12-11T14:23:23;0.50;99.90
18225;DHT22;9237;48.590;8.854;2022-12-11T14:25:52;0.40;99.90
18225;DHT22;9237;48.590;8.854;2022-12-11T14:28:20;0.40;99.90
18225;DHT22;9237;48.590;8.854;2022-12-11T14:30:50;0.30;99.90
18225;DHT22;9237;48.590;8.854;2022-12-11T14:33:19;0.30;99.90
18225;DHT22;9237;48.590;8.854;2022-12-11T14:35:48;0.20;99.90
18225;DHT22;9237;48.590;8.854;2022-12-11T14:38:19;0.20;99.90
18225;DHT22;9237;48.590;8.854;2022-12-11T14:40:53;0.20;99.90
18225;DHT22;9237;48.590;8.854;2022-12-11T14:43:23;0.10;99.90
18225;DHT22;9237;48.590;8.854;2022-12-11T14:45:55;0.00;99.90
18225;DHT22;9237;48.590;8.854;2022-12-11T14:48:25;-0.10;99.90
18225;DHT22;9237;48.590;8.854;2022-12-11T14:50:57;-0.10;99.90
18225;DHT22;9237;48.590;8.854;2022-12-11T14:53:25;-0.10;99.90
18225;DHT22;9237;48.590;8.854;2022-12-11T14:55:57;-0.10;99.90
18225;DHT22;9237;48.590;8.854;2022-12-11T14:58:26;-0.10;99.90
18225;DHT22;9237;48.590;8.854;2022-12-11T15:00:58;-0.20;99.90
18225;DHT22;9237;48.590;8.854;2022-12-11T15:03:30;-0.20;99.90
18225;DHT22;9237;48.590;8.854;2022-12-11T15:05:58;-0.20;99.90
18225;DHT22;9237;48.590;8.854;2022-12-11T15:08:27;-0.20;99.90
18225;DHT22;9237;48.590;8.854;2022-12-11T15:11:01;-0.30;99.90
18225;DHT22;9237;48.590;8.854;2022-12-11T15:13:28;-0.30;99.90
18225;DHT22;9237;48.590;8.854;2022-12-11T15:15:56;-0.30;99.90
18225;DHT22;9237;48.590;8.854;2022-12-11T15:18:26;-0.40;99.90
18225;DHT22;9237;48.590;8.854;2022-12-11T15:20:56;-0.40;99.90
18225;DHT22;9237;48.590;8.854;2022-12-11T15:23:24;-0.40;99.90
18225;DHT22;9237;48.590;8.854;2022-12-11T15:25:53;-0.40;99.90
18225;DHT22;9237;48.590;8.854;2022-12-11T15:28:29;-0.40;99.90
18225;DHT22;9237;48.590;8.854;2022-12-11T15:31:00;-0.40;99.90
18225;DHT22;9237;48.590;8.854;2022-12-11T15:33:27;-0.50;99.90
18225;DHT22;9237;48.590;8.854;2022-12-11T15:35:57;-0.50;99.90
18225;DHT22;9237;48.590;8.854;2022-12-11T15:38:30;-0.50;99.90
18225;DHT22;9237;48.590;8.854;2022-12-11T15:40:57;-0.50;99.90
18225;DHT22;9237;48.590;8.854;2022-12-11T15:43:25;-0.50;99.90
18225;DHT22;9237;48.590;8.854;2022-12-11T15:45:53;-0.50;99.90
18225;DHT22;9237;48.590;8.854;2022-12-11T15:48:20;-0.60;99.90
18225;DHT22;9237;48.590;8.854;2022-12-11T15:50:47;-0.60;99.90
18225;DHT22;9237;48.590;8.854;2022-12-11T15:53:14;-0.60;99.90
18225;DHT22;9237;48.590;8.854;2022-12-11T15:55:41;-0.60;99.90
18225;DHT22;9237;48.590;8.854;2022-12-11T15:58:13;-0.70;99.90
18225;DHT22;9237;48.590;8.854;2022-12-11T16:00:40;-0.60;99.90
18225;DHT22;9237;48.590;8.854;2022-12-11T16:03:10;-0.60;99.90
18225;DHT22;9237;48.590;8.854;2022-12-11T16:05:37;-0.60;99.90
18225;DHT22;9237;48.590;8.854;2022-12-11T16:08:05;-0.50;99.90
18225;DHT22;9237;48.590;8.854;2022-12-11T16:10:32;-0.50;99.90
18225;DHT22;9237;48.590;8.854;2022-12-11T16:12:59;-0.60;99.90
18225;DHT22;9237;48.590;8.854;2022-12-11T16:15:27;-0.60;99.90